Time;durP1;ratioP1;P1;durP2;ratioP2;P2;SDS_P1;SDS_P2;PMS_P1;PMS_P2;Temp;Humidity;BMP_temperature;BMP_pressure;BME280_temperature;BME280_humidity;BME280_pressure;Samples;Min_cycle;Max_cycle;Signal;HPM_P1;HPM_P2
2021/01/08 00:02:24;;;;;;;4.67;2.07;;;3.80;93.20;;;;;;5093005;28;20032;-73
2021/01/08 00:04:50;;;;;;;5.03;2.10;;;3.80;93.20;;;;;;5058980;28;20024;-73
2021/01/08 00:07:16;;;;;;;4.23;2.10;;;3.80;93.20;;;;;;5092779;28;20514;-73
2021/01/08 00:09:41;;;;;;;4.83;2.17;;;3.80;93.30;;;;;;5093807;28;20028;-73
2021/01/08 00:12:07;;;;;;;5.43;2.53;;;3.80;93.30;;;;;;5075494;28;20039;-73
2021/01/08 00:14:33;;;;;;;5.03;1.80;;;3.80;93.30;;;;;;5092452;28;20494;-73
2021/01/08 00:16:59;;;;;;;3.90;1.93;;;3.80;93.30;;;;;;5075624;28;20020;-73
2021/01/08 00:19:25;;;;;;;3.93;1.70;;;3.80;93.30;;;;;;5075938;28;20036;-74
2021/01/08 00:21:51;;;;;;;5.20;2.03;;;3.80;93.30;;;;;;5058812;28;20024;-73
2021/01/08 00:24:16;;;;;;;6.33;2.10;;;3.80;93.30;;;;;;5093553;28;20117;-75
2021/01/08 00:26:42;;;;;;;5.90;2.20;;;3.80;93.30;;;;;;5093586;28;20483;-74
2021/01/08 00:29:10;;;;;;;4.90;2.23;;;3.80;93.30;;;;;;5092359;28;20538;-74
2021/01/08 00:31:41;;;;;;;4.80;2.27;;;3.80;93.30;;;;;;5092501;28;20028;-73
2021/01/08 00:34:12;;;;;;;5.53;2.30;;;3.90;93.30;;;;;;5075436;28;20032;-75
2021/01/08 00:36:47;;;;;;;4.30;1.90;;;3.80;93.30;;;;;;5093503;28;20023;-74
2021/01/08 00:39:13;;;;;;;6.00;2.03;;;3.80;93.30;;;;;;5075405;28;20024;-74
2021/01/08 00:41:38;;;;;;;5.10;1.63;;;3.80;93.30;;;;;;5058688;28;20024;-75
2021/01/08 00:44:04;;;;;;;5.87;2.10;;;3.80;93.30;;;;;;5093465;28;20056;-75
2021/01/08 00:46:32;;;;;;;3.97;1.77;;;3.80;93.30;;;;;;5075878;28;20081;-75
2021/01/08 00:48:57;;;;;;;5.10;2.07;;;3.80;93.30;;;;;;5075762;28;20053;-76
2021/01/08 00:51:24;;;;;;;4.20;1.90;;;3.80;93.30;;;;;;5092210;28;20123;-75
2021/01/08 00:53:50;;;;;;;4.03;2.00;;;3.80;93.30;;;;;;5092120;28;20103;-75
2021/01/08 00:56:17;;;;;;;4.43;2.10;;;3.80;93.30;;;;;;5075365;28;20535;-75
2021/01/08 00:58:42;;;;;;;6.97;2.07;;;3.80;93.30;;;;;;5075427;28;20028;-75
2021/01/08 01:01:08;;;;;;;4.20;1.97;;;3.80;93.30;;;;;;5092227;28;20032;-75
2021/01/08 01:03:33;;;;;;;5.57;2.37;;;3.80;93.30;;;;;;5058574;28;20112;-75
2021/01/08 01:05:59;;;;;;;3.77;2.20;;;3.80;93.30;;;;;;5091907;28;20030;-75
2021/01/08 01:08:24;;;;;;;3.50;1.70;;;3.80;93.30;;;;;;5092068;28;20433;-74
2021/01/08 01:10:50;;;;;;;3.93;1.90;;;3.90;93.30;;;;;;5075204;28;20501;-81
2021/01/08 01:13:16;;;;;;;5.03;2.10;;;3.80;93.30;;;;;;5078255;28;20123;-74
2021/01/08 01:15:41;;;;;;;4.53;2.20;;;3.90;93.40;;;;;;5078851;28;20020;-74
2021/01/08 01:18:07;;;;;;;4.77;2.33;;;3.80;93.30;;;;;;5062207;28;20566;-74
2021/01/08 01:20:32;;;;;;;3.90;2.07;;;3.90;93.30;;;;;;5078798;28;20022;-74
2021/01/08 01:22:58;;;;;;;7.37;2.47;;;3.90;93.30;;;;;;5078756;28;20059;-74
2021/01/08 01:25:23;;;;;;;5.47;2.20;;;3.90;93.30;;;;;;5078733;28;20536;-73
2021/01/08 01:27:49;;;;;;;4.97;2.50;;;3.80;93.30;;;;;;5095596;28;20036;-73
2021/01/08 01:30:17;;;;;;;3.67;1.97;;;3.90;93.30;;;;;;5096787;28;20456;-74
2021/01/08 01:32:43;;;;;;;6.10;2.53;;;3.80;93.30;;;;;;5095384;28;20073;-74
2021/01/08 01:35:09;;;;;;;5.00;2.50;;;3.90;93.30;;;;;;5061806;28;20111;-74
2021/01/08 01:37:34;;;;;;;4.83;2.53;;;3.90;93.30;;;;;;5078378;28;20566;-74
2021/01/08 01:40:00;;;;;;;4.60;1.97;;;3.90;93.30;;;;;;5061707;28;20043;-74
2021/01/08 01:42:26;;;;;;;5.23;2.60;;;3.90;93.30;;;;;;5062297;28;20039;-73
2021/01/08 01:44:51;;;;;;;5.27;1.93;;;3.90;93.30;;;;;;5095726;28;20514;-74
2021/01/08 01:47:17;;;;;;;5.57;2.67;;;3.90;93.30;;;;;;5095260;28;20024;-74
2021/01/08 01:49:43;;;;;;;4.17;2.20;;;3.90;93.30;;;;;;5096448;28;20062;-74
2021/01/08 01:52:08;;;;;;;4.60;2.20;;;3.90;93.30;;;;;;5096429;28;20032;-73
2021/01/08 01:54:34;;;;;;;4.60;1.93;;;3.90;93.30;;;;;;5096264;28;20384;-73
2021/01/08 01:57:00;;;;;;;4.23;1.90;;;3.90;93.30;;;;;;5095091;28;20020;-74
2021/01/08 01:59:25;;;;;;;3.30;1.57;;;3.90;93.30;;;;;;5094989;28;20022;-74
2021/01/08 02:01:51;;;;;;;3.97;1.80;;;3.90;93.30;;;;;;5078105;28;20028;-74
2021/01/08 02:04:18;;;;;;;3.80;1.60;;;3.90;93.30;;;;;;5061404;28;20052;-73
2021/01/08 02:06:45;;;;;;;3.90;1.93;;;3.80;93.20;;;;;;5096847;28;20083;-73
2021/01/08 02:09:14;;;;;;;4.07;1.73;;;3.80;93.20;;;;;;5095987;28;20028;-74
2021/01/08 02:11:45;;;;;;;3.90;1.47;;;3.90;93.30;;;;;;5081380;28;20033;-74
2021/01/08 02:14:24;;;;;;;4.67;1.80;;;3.90;93.30;;;;;;5075297;28;20552;-73
2021/01/08 02:16:50;;;;;;;5.93;2.03;;;3.80;93.20;;;;;;5074689;28;20523;-74
2021/01/08 02:19:24;;;;;;;3.97;2.00;;;3.80;93.20;;;;;;5073572;28;20103;-74
2021/01/08 02:21:55;;;;;;;4.07;1.90;;;3.80;93.20;;;;;;5074961;28;20158;-74
2021/01/08 02:24:30;;;;;;;5.53;2.13;;;3.80;93.20;;;;;;5075324;28;20031;-74
2021/01/08 02:26:56;;;;;;;4.87;2.17;;;3.80;93.20;;;;;;5074392;28;20503;-74
2021/01/08 02:29:22;;;;;;;6.27;2.30;;;3.80;93.20;;;;;;5075660;28;20029;-74
2021/01/08 02:31:48;;;;;;;4.87;2.30;;;3.80;93.20;;;;;;5057623;28;20039;-74
2021/01/08 02:34:15;;;;;;;3.67;1.67;;;3.80;93.20;;;;;;5057618;28;20028;-74
2021/01/08 02:36:43;;;;;;;3.43;1.50;;;3.80;93.20;;;;;;5073970;28;20578;-74
2021/01/08 02:39:12;;;;;;;5.50;1.83;;;3.80;93.20;;;;;;5075209;28;20024;-74
2021/01/08 02:41:41;;;;;;;6.27;1.87;;;3.80;93.30;;;;;;5073880;28;20051;-74
2021/01/08 02:44:08;;;;;;;5.80;2.30;;;3.80;93.20;;;;;;5075878;28;20029;-74
2021/01/08 02:46:33;;;;;;;6.27;2.00;;;3.80;93.20;;;;;;5057057;28;20036;-74
2021/01/08 02:48:59;;;;;;;4.07;1.90;;;3.80;93.20;;;;;;5073881;28;20021;-74
2021/01/08 02:51:26;;;;;;;3.60;1.60;;;3.80;93.20;;;;;;5074740;28;20072;-74
2021/01/08 02:53:52;;;;;;;4.30;1.90;;;3.90;93.20;;;;;;5073889;28;20032;-73
2021/01/08 02:56:22;;;;;;;5.47;2.23;;;3.90;93.30;;;;;;5073790;28;20570;-74
2021/01/08 02:58:49;;;;;;;4.97;1.90;;;3.80;93.30;;;;;;5075467;28;20065;-74
2021/01/08 03:01:15;;;;;;;3.57;1.43;;;3.80;93.30;;;;;;5074842;28;20081;-74
2021/01/08 03:03:42;;;;;;;4.17;1.83;;;3.80;93.30;;;;;;5073419;28;20024;-74
2021/01/08 03:06:08;;;;;;;4.20;1.80;;;3.80;93.30;;;;;;5073652;28;20060;-74
2021/01/08 03:08:34;;;;;;;4.10;2.00;;;3.80;93.20;;;;;;5074609;28;20028;-74
2021/01/08 03:11:00;;;;;;;4.80;2.03;;;3.80;93.20;;;;;;5073361;28;20036;-74
2021/01/08 03:13:30;;;;;;;4.23;1.67;;;3.80;93.30;;;;;;5074543;28;20027;-74
2021/01/08 03:15:56;;;;;;;3.43;1.50;;;3.80;93.30;;;;;;5074861;28;20376;-74
2021/01/08 03:18:22;;;;;;;4.53;1.60;;;3.80;93.30;;;;;;5073348;28;20016;-74
2021/01/08 03:20:47;;;;;;;4.23;1.73;;;3.80;93.30;;;;;;5073168;28;20111;-74
2021/01/08 03:23:13;;;;;;;4.00;1.63;;;3.80;93.70;;;;;;5056541;28;20028;-74
2021/01/08 03:25:39;;;;;;;3.63;1.40;;;3.80;93.40;;;;;;5073461;28;20364;-74
2021/01/08 03:28:04;;;;;;;3.47;1.70;;;3.90;93.40;;;;;;5072932;28;20028;-74
2021/01/08 03:30:30;;;;;;;3.53;1.37;;;3.90;93.50;;;;;;5074195;28;20028;-74
2021/01/08 03:32:56;;;;;;;4.33;1.77;;;3.80;93.50;;;;;;5056129;28;20036;-75
2021/01/08 03:35:21;;;;;;;5.37;1.57;;;3.90;93.50;;;;;;5072127;28;20025;-74
2021/01/08 03:37:47;;;;;;;4.90;1.67;;;3.90;93.50;;;;;;5073217;28;20025;-74
2021/01/08 03:40:13;;;;;;;4.67;2.03;;;3.90;93.50;;;;;;5072760;28;20027;-74
2021/01/08 03:42:38;;;;;;;4.30;1.70;;;3.90;93.50;;;;;;5073022;28;20017;-74
2021/01/08 03:45:05;;;;;;;2.93;1.50;;;4.00;93.50;;;;;;5072851;28;20527;-74
2021/01/08 03:47:31;;;;;;;4.47;1.60;;;3.90;93.50;;;;;;5072707;28;20081;-74
2021/01/08 03:49:56;;;;;;;4.20;1.80;;;3.90;93.40;;;;;;5073846;28;20536;-74
2021/01/08 03:52:22;;;;;;;3.27;1.57;;;4.00;93.40;;;;;;5055792;28;20032;-74
2021/01/08 03:54:48;;;;;;;3.37;1.70;;;4.00;93.40;;;;;;5072372;28;20388;-74
2021/01/08 03:57:13;;;;;;;4.20;1.80;;;4.00;93.40;;;;;;5073745;28;20025;-74
2021/01/08 03:59:39;;;;;;;4.07;1.87;;;4.00;93.30;;;;;;5072395;28;20107;-74
2021/01/08 04:02:06;;;;;;;4.40;1.70;;;4.00;93.30;;;;;;5055810;28;20078;-74
2021/01/08 04:04:31;;;;;;;4.43;1.67;;;4.00;93.30;;;;;;5072301;28;20427;-74
2021/01/08 04:06:57;;;;;;;4.60;2.00;;;4.00;93.30;;;;;;5073682;28;20028;-74
2021/01/08 04:09:23;;;;;;;3.23;1.63;;;4.00;93.30;;;;;;5073717;28;20028;-74
2021/01/08 04:11:48;;;;;;;4.17;2.03;;;4.10;93.30;;;;;;5073921;28;20066;-74
2021/01/08 04:14:14;;;;;;;5.40;2.10;;;3.90;93.20;;;;;;5073804;28;20021;-74
2021/01/08 04:16:41;;;;;;;3.77;1.83;;;3.90;93.20;;;;;;5056180;28;20020;-74
2021/01/08 04:19:10;;;;;;;3.97;1.67;;;3.90;93.20;;;;;;5073787;28;20024;-74
2021/01/08 04:21:37;;;;;;;4.37;2.23;;;3.90;93.20;;;;;;5072506;28;20039;-74
2021/01/08 04:24:03;;;;;;;4.07;1.80;;;4.00;93.20;;;;;;5072468;28;20051;-74
2021/01/08 04:26:29;;;;;;;3.33;1.57;;;4.00;93.50;;;;;;5073628;28;20024;-74
2021/01/08 04:28:55;;;;;;;3.77;1.47;;;3.90;93.20;;;;;;5072051;28;20043;-74
2021/01/08 04:31:20;;;;;;;3.97;1.53;;;3.90;93.20;;;;;;5055648;28;20115;-74
2021/01/08 04:33:46;;;;;;;6.10;1.67;;;4.10;93.30;;;;;;5072058;28;20460;-74
2021/01/08 04:36:12;;;;;;;4.43;1.43;;;3.90;93.20;;;;;;5055359;28;20028;-74
2021/01/08 04:38:38;;;;;;;3.97;1.73;;;4.00;93.30;;;;;;5073323;28;20032;-74
2021/01/08 04:41:05;;;;;;;4.27;2.00;;;4.10;93.30;;;;;;5073205;28;20052;-74
2021/01/08 04:43:32;;;;;;;3.43;1.43;;;4.00;93.30;;;;;;5073245;28;20024;-74
2021/01/08 04:46:05;;;;;;;3.90;2.00;;;3.90;93.30;;;;;;5056401;28;20035;-74
2021/01/08 04:48:32;;;;;;;3.72;1.63;;;4.00;93.30;;;;;;5076490;28;20021;-74
2021/01/08 04:51:01;;;;;;;4.07;1.87;;;4.00;93.30;;;;;;5059417;28;20059;-74
2021/01/08 04:53:27;;;;;;;3.73;2.00;;;4.00;93.30;;;;;;5075979;28;20036;-73
2021/01/08 04:55:55;;;;;;;3.53;1.50;;;4.00;93.20;;;;;;5059372;28;20033;-74
2021/01/08 04:58:24;;;;;;;5.30;2.10;;;4.10;93.30;;;;;;5077348;28;20029;-73
2021/01/08 05:00:49;;;;;;;4.13;1.83;;;4.00;93.20;;;;;;5076281;28;20111;-74
2021/01/08 05:03:15;;;;;;;3.50;1.57;;;4.00;93.10;;;;;;5075587;28;20594;-74
2021/01/08 05:05:41;;;;;;;3.67;1.80;;;4.00;93.20;;;;;;5077226;28;20065;-74
2021/01/08 05:08:06;;;;;;;3.30;1.87;;;3.90;93.20;;;;;;5076189;28;20024;-72
2021/01/08 05:10:32;;;;;;;4.17;1.70;;;3.90;93.20;;;;;;5080781;28;20064;-74
2021/01/08 05:12:57;;;;;;;4.47;1.83;;;3.90;93.10;;;;;;5080348;28;20035;-74
2021/01/08 05:15:25;;;;;;;3.00;1.40;;;3.90;93.20;;;;;;5079770;28;20086;-74
2021/01/08 05:17:51;;;;;;;5.17;1.67;;;4.00;93.20;;;;;;5078305;28;20032;-74
2021/01/08 05:20:16;;;;;;;3.27;1.20;;;4.00;93.10;;;;;;5077493;28;20020;-75
2021/01/08 05:22:43;;;;;;;4.60;2.03;;;4.00;93.10;;;;;;5067925;28;20384;-73
2021/01/08 05:25:10;;;;;;;3.83;1.60;;;4.00;93.10;;;;;;5069252;28;20029;-74
2021/01/08 05:27:37;;;;;;;3.37;1.43;;;4.00;93.10;;;;;;5067550;28;20039;-73
2021/01/08 05:30:12;;;;;;;5.33;1.67;;;4.00;93.00;;;;;;5063100;28;20028;-74
2021/01/08 05:32:38;;;;;;;3.53;1.40;;;4.00;93.10;;;;;;5075640;28;20131;-75
2021/01/08 05:35:04;;;;;;;3.27;1.50;;;4.00;93.10;;;;;;5075176;28;20115;-74
2021/01/08 05:37:30;;;;;;;4.30;1.80;;;4.00;93.00;;;;;;5074967;28;20111;-73
2021/01/08 05:40:04;;;;;;;3.70;1.50;;;4.00;93.00;;;;;;5075376;28;20036;-74
2021/01/08 05:42:30;;;;;;;2.97;1.30;;;4.00;93.00;;;;;;5076268;28;20099;-74
2021/01/08 05:44:55;;;;;;;3.80;1.33;;;4.00;93.00;;;;;;5058403;28;20365;-74
2021/01/08 05:47:21;;;;;;;4.53;1.53;;;4.00;93.00;;;;;;5058294;28;20035;-74
2021/01/08 05:49:48;;;;;;;4.77;1.73;;;3.90;93.00;;;;;;5074783;28;20048;-74
2021/01/08 05:52:16;;;;;;;3.33;1.47;;;4.00;93.00;;;;;;5074921;28;20499;-74
2021/01/08 05:54:43;;;;;;;6.53;2.97;;;4.00;93.00;;;;;;5076071;28;20025;-74
2021/01/08 05:57:09;;;;;;;5.47;2.20;;;3.90;93.00;;;;;;5074957;28;20044;-74
2021/01/08 05:59:35;;;;;;;4.77;2.03;;;3.90;93.00;;;;;;5074563;28;20123;-74
2021/01/08 06:02:01;;;;;;;4.67;2.00;;;4.00;93.00;;;;;;5058305;28;20024;-74
2021/01/08 06:04:30;;;;;;;3.87;1.60;;;4.00;93.00;;;;;;5058046;28;20357;-74
2021/01/08 06:06:57;;;;;;;4.73;1.40;;;4.00;93.00;;;;;;5076270;28;20480;-74
2021/01/08 06:09:22;;;;;;;7.87;2.13;;;4.00;93.00;;;;;;5058067;28;20384;-74
2021/01/08 06:11:49;;;;;;;4.97;1.90;;;4.00;93.00;;;;;;5074577;28;20033;-74
2021/01/08 06:14:16;;;;;;;3.73;1.57;;;4.00;93.00;;;;;;5075059;28;20036;-74
2021/01/08 06:16:46;;;;;;;3.47;1.43;;;4.00;93.00;;;;;;5075800;28;20020;-74
2021/01/08 06:19:16;;;;;;;4.50;1.93;;;4.00;93.00;;;;;;5074442;28;20452;-74
2021/01/08 06:21:46;;;;;;;4.80;1.83;;;4.00;93.00;;;;;;5075487;28;20035;-75
2021/01/08 06:24:28;;;;;;;3.13;1.70;;;4.10;93.00;;;;;;5075616;28;20025;-74
2021/01/08 06:26:54;;;;;;;4.73;1.70;;;4.00;93.00;;;;;;5074596;28;20073;-74
2021/01/08 06:29:22;;;;;;;5.10;1.80;;;4.00;93.00;;;;;;5066696;28;20027;-74
2021/01/08 06:31:52;;;;;;;4.83;1.90;;;4.00;93.00;;;;;;5094628;28;20028;-73
2021/01/08 06:34:27;;;;;;;3.93;1.70;;;3.90;93.00;;;;;;5095195;28;20020;-74
2021/01/08 06:37:14;;;;;;;4.33;1.90;;;4.00;93.00;;;;;;5094313;28;20051;-74
2021/01/08 06:39:43;;;;;;;4.70;1.90;;;3.90;92.90;;;;;;5094427;28;20053;-73
2021/01/08 06:42:09;;;;;;;4.63;2.10;;;3.90;92.90;;;;;;5095670;28;20072;-74
2021/01/08 06:44:36;;;;;;;6.07;2.13;;;3.90;92.90;;;;;;5094215;28;20027;-74
2021/01/08 06:47:04;;;;;;;3.77;1.67;;;3.90;92.90;;;;;;5094408;28;20032;-74
2021/01/08 06:49:31;;;;;;;5.33;2.00;;;3.80;92.90;;;;;;5095732;28;20027;-74
2021/01/08 06:52:00;;;;;;;6.40;2.33;;;3.90;93.00;;;;;;5094109;28;20038;-74
2021/01/08 06:54:27;;;;;;;6.47;2.50;;;3.80;93.00;;;;;;5094057;28;20062;-74
2021/01/08 06:57:00;;;;;;;5.90;2.40;;;3.90;93.00;;;;;;5095908;28;20025;-74
2021/01/08 06:59:33;;;;;;;5.70;2.47;;;3.90;93.10;;;;;;5094187;28;20051;-74
2021/01/08 07:02:14;;;;;;;4.70;1.83;;;3.90;93.10;;;;;;5095125;28;20023;-74
2021/01/08 07:04:40;;;;;;;4.93;2.23;;;3.90;93.10;;;;;;5095055;28;20099;-74
2021/01/08 07:07:11;;;;;;;5.20;2.30;;;3.90;93.10;;;;;;5093821;28;20020;-74
2021/01/08 07:09:38;;;;;;;5.67;1.90;;;3.90;93.10;;;;;;5076591;28;20032;-74
2021/01/08 07:12:06;;;;;;;5.87;2.00;;;3.90;93.20;;;;;;5094923;28;20046;-74
2021/01/08 07:14:34;;;;;;;5.20;2.53;;;3.90;93.10;;;;;;5093907;28;20419;-74
2021/01/08 07:17:03;;;;;;;4.57;2.07;;;3.90;93.20;;;;;;5093660;28;20375;-74
2021/01/08 07:19:30;;;;;;;4.80;1.97;;;4.00;93.20;;;;;;5093626;28;20016;-74
2021/01/08 07:22:00;;;;;;;6.17;2.27;;;4.00;93.20;;;;;;5094776;28;20016;-74
2021/01/08 07:24:34;;;;;;;4.77;1.97;;;4.00;93.20;;;;;;5094949;28;20024;-74
2021/01/08 07:27:24;;;;;;;4.47;2.10;;;4.00;93.20;;;;;;5076349;28;20101;-75
2021/01/08 07:29:55;;;;;;;4.30;1.73;;;4.00;93.20;;;;;;5076730;28;20032;-74
2021/01/08 07:32:36;;;;;;;6.37;2.57;;;4.10;93.20;;;;;;5076794;28;20056;-74
2021/01/08 07:35:18;;;;;;;6.50;2.07;;;4.00;93.20;;;;;;5093001;28;20032;-74
2021/01/08 07:38:16;;;;;;;4.63;2.03;;;4.00;93.20;;;;;;5093565;28;20115;-82
2021/01/08 07:40:57;;;;;;;6.03;1.87;;;4.10;93.20;;;;;;5094609;28;20027;-82
2021/01/08 07:43:33;;;;;;;6.47;2.50;;;4.00;93.20;;;;;;5076471;28;20123;-82
2021/01/08 07:46:00;;;;;;;8.57;2.80;;;4.10;93.20;;;;;;5056894;28;20028;-82
2021/01/08 07:48:40;;;;;;;5.03;2.50;;;4.10;93.20;;;;;;5084154;28;20029;-82
2021/01/08 07:51:13;;;;;;;5.90;2.37;;;4.10;93.20;;;;;;5074107;28;20127;-82
2021/01/08 07:53:44;;;;;;;5.97;1.70;;;4.10;93.20;;;;;;5079380;28;20033;-81
2021/01/08 07:56:10;;;;;;;5.27;2.30;;;4.10;93.20;;;;;;5080818;28;20307;-82
2021/01/08 07:58:36;;;;;;;8.37;3.07;;;4.10;93.20;;;;;;5087317;28;20050;-81
2021/01/08 08:01:03;;;;;;;4.97;2.20;;;4.10;93.20;;;;;;5089592;28;20467;-81
2021/01/08 08:03:29;;;;;;;5.73;2.60;;;4.10;93.20;;;;;;5063996;28;20439;-82
2021/01/08 08:05:55;;;;;;;5.97;2.87;;;4.10;93.20;;;;;;5072410;28;20033;-81
2021/01/08 08:08:20;;;;;;;5.33;2.23;;;4.20;93.20;;;;;;5072412;28;20032;-82
2021/01/08 08:10:46;;;;;;;7.60;3.17;;;4.10;93.20;;;;;;5072471;28;20388;-82
2021/01/08 08:13:15;;;;;;;7.33;2.80;;;4.10;93.20;;;;;;5072385;28;20067;-82
2021/01/08 08:15:48;;;;;;;6.43;3.40;;;4.20;93.30;;;;;;5073683;28;20491;-82
2021/01/08 08:18:14;;;;;;;7.50;3.50;;;4.20;93.30;;;;;;5072265;28;20032;-82
2021/01/08 08:20:40;;;;;;;7.10;3.60;;;4.20;93.20;;;;;;5072046;28;20029;-81
2021/01/08 08:23:17;;;;;;;5.90;2.80;;;4.20;93.20;;;;;;5081738;28;20067;-81
2021/01/08 08:25:44;;;;;;;6.87;3.07;;;4.20;93.20;;;;;;5093773;28;20035;-81
2021/01/08 08:28:10;;;;;;;8.33;3.30;;;4.20;93.20;;;;;;5086433;28;20029;-81
2021/01/08 08:30:35;;;;;;;7.03;3.40;;;4.20;93.20;;;;;;5072993;28;20096;-81
2021/01/08 08:33:04;;;;;;;9.23;3.27;;;4.20;93.20;;;;;;5073433;28;20032;-81
2021/01/08 08:35:34;;;;;;;6.83;2.70;;;4.20;93.20;;;;;;5072114;28;20025;-82
2021/01/08 08:38:00;;;;;;;10.67;3.30;;;4.30;93.50;;;;;;5072081;28;20166;-81
2021/01/08 08:40:29;;;;;;;6.73;3.53;;;4.30;93.30;;;;;;5073473;28;20518;-82
2021/01/08 08:42:58;;;;;;;7.57;3.17;;;4.30;93.20;;;;;;5076311;28;20248;-81
2021/01/08 08:45:32;;;;;;;7.80;3.60;;;4.30;93.20;;;;;;5072430;28;20380;-81
2021/01/08 08:47:59;;;;;;;6.93;3.67;;;4.30;93.20;;;;;;5055893;28;20028;-82
2021/01/08 08:50:26;;;;;;;6.90;3.30;;;4.30;93.20;;;;;;5071835;28;20492;-82
2021/01/08 08:52:52;;;;;;;8.70;3.33;;;4.30;93.20;;;;;;5071876;28;20494;-82
2021/01/08 08:55:25;;;;;;;7.43;3.70;;;4.30;93.20;;;;;;5072019;28;20090;-82
2021/01/08 08:58:05;;;;;;;6.45;3.15;;;4.30;93.50;;;;;;5071854;28;20036;-81
2021/01/08 09:00:32;;;;;;;8.10;3.93;;;4.40;93.30;;;;;;5093326;28;20046;-81
2021/01/08 09:02:58;;;;;;;7.63;3.47;;;4.40;93.30;;;;;;5091905;28;20036;-81
2021/01/08 09:05:32;;;;;;;8.67;3.30;;;4.40;93.20;;;;;;5092335;28;20024;-81
2021/01/08 09:08:06;;;;;;;7.97;3.20;;;4.40;93.20;;;;;;5092070;28;20424;-81
2021/01/08 09:10:39;;;;;;;6.00;2.85;;;4.40;93.30;;;;;;5093661;28;20099;-82
2021/01/08 09:13:15;;;;;;;7.50;3.30;;;4.50;93.30;;;;;;5093087;28;20021;-81
2021/01/08 09:15:56;;;;;;;7.47;3.90;;;4.50;93.30;;;;;;5058445;28;20432;-82
2021/01/08 09:18:35;;;;;;;7.63;3.87;;;4.60;93.40;;;;;;5091942;28;20024;-82
2021/01/08 09:21:21;;;;;;;8.03;3.60;;;4.60;93.40;;;;;;5093245;28;20020;-81
2021/01/08 09:23:48;;;;;;;6.37;3.43;;;4.60;93.30;;;;;;5092134;28;20077;-82
2021/01/08 09:26:17;;;;;;;6.17;3.37;;;4.70;93.40;;;;;;5075675;28;20089;-82
2021/01/08 09:28:45;;;;;;;7.87;3.53;;;4.70;93.40;;;;;;5091845;28;20028;-82
2021/01/08 09:31:12;;;;;;;10.60;3.37;;;4.80;93.40;;;;;;5071864;28;20082;-82
2021/01/08 09:33:38;;;;;;;7.37;3.53;;;4.80;93.30;;;;;;5074168;28;20051;-82
2021/01/08 09:36:05;;;;;;;6.43;3.33;;;4.80;93.30;;;;;;5076736;28;20484;-81
2021/01/08 09:38:31;;;;;;;7.30;3.47;;;4.80;93.20;;;;;;5058999;28;20460;-81
2021/01/08 09:40:57;;;;;;;7.30;3.10;;;4.90;93.10;;;;;;5058990;28;20025;-81
2021/01/08 09:43:23;;;;;;;6.80;3.30;;;4.90;93.10;;;;;;5079778;28;20016;-81
2021/01/08 09:46:04;;;;;;;6.10;3.37;;;5.00;93.10;;;;;;5092356;28;20067;-82
2021/01/08 09:48:29;;;;;;;6.30;2.73;;;5.10;93.10;;;;;;5075589;28;20115;-82
2021/01/08 09:51:05;;;;;;;8.20;2.37;;;5.00;93.10;;;;;;5074829;28;20588;-82
2021/01/08 09:53:35;;;;;;;5.67;2.33;;;5.00;93.00;;;;;;5074872;28;20020;-82
2021/01/08 09:56:15;;;;;;;4.20;1.77;;;5.20;92.90;;;;;;5072740;28;20020;-81
2021/01/08 09:58:41;;;;;;;3.67;1.37;;;5.10;92.70;;;;;;5058196;28;20462;-81
2021/01/08 10:01:08;;;;;;;3.27;1.33;;;5.10;92.60;;;;;;5074930;28;20028;-82
2021/01/08 10:03:34;;;;;;;4.27;1.70;;;5.10;92.30;;;;;;5074909;28;20554;-82
2021/01/08 10:06:09;;;;;;;3.83;1.47;;;5.10;92.30;;;;;;5074951;28;20016;-81
2021/01/08 10:08:35;;;;;;;4.13;1.47;;;5.20;92.40;;;;;;5076110;28;20027;-82
2021/01/08 10:11:01;;;;;;;4.57;1.77;;;5.20;92.30;;;;;;5077925;28;20033;-81
2021/01/08 10:13:26;;;;;;;3.93;1.77;;;5.20;92.30;;;;;;5095871;28;20040;-82
2021/01/08 10:15:56;;;;;;;4.80;1.90;;;5.20;92.50;;;;;;5095957;28;20028;-81
2021/01/08 10:18:28;;;;;;;4.23;1.73;;;5.30;92.20;;;;;;5078388;28;20104;-81
2021/01/08 10:20:54;;;;;;;3.47;1.50;;;5.30;92.00;;;;;;5095282;28;20016;-82
2021/01/08 10:23:26;;;;;;;5.40;2.17;;;5.30;91.90;;;;;;5094880;28;20028;-82
2021/01/08 10:26:13;;;;;;;3.13;1.30;;;5.30;91.90;;;;;;5094725;28;20103;-82
2021/01/08 10:29:05;;;;;;;3.27;1.30;;;5.30;91.90;;;;;;5096082;28;20024;-82
2021/01/08 10:31:31;;;;;;;3.47;1.40;;;5.30;91.80;;;;;;5092406;28;20050;-82
2021/01/08 10:34:00;;;;;;;2.90;1.30;;;5.30;91.80;;;;;;5094471;28;20507;-82
2021/01/08 10:36:26;;;;;;;3.23;1.30;;;5.40;91.80;;;;;;5094511;28;20498;-82
2021/01/08 10:38:51;;;;;;;2.80;1.27;;;5.50;91.80;;;;;;5077494;28;20020;-82
2021/01/08 10:41:18;;;;;;;2.70;1.30;;;5.50;91.60;;;;;;5094278;28;20028;-82
2021/01/08 10:43:44;;;;;;;4.90;1.30;;;5.40;91.60;;;;;;5094122;28;20039;-83
2021/01/08 10:46:11;;;;;;;4.27;1.73;;;5.50;91.60;;;;;;5094281;28;20032;-82
2021/01/08 10:48:37;;;;;;;4.17;1.50;;;5.50;91.50;;;;;;5094137;28;20024;-82
2021/01/08 10:51:02;;;;;;;2.93;1.30;;;5.50;91.40;;;;;;5075009;28;20052;-82
2021/01/08 10:53:28;;;;;;;2.87;1.00;;;5.50;91.10;;;;;;5079508;28;20027;-81
2021/01/08 10:55:54;;;;;;;4.53;1.23;;;5.50;91.00;;;;;;5090690;28;20027;-82
2021/01/08 10:58:19;;;;;;;2.73;1.10;;;5.50;90.80;;;;;;5075259;28;20048;-82
2021/01/08 11:00:46;;;;;;;2.67;1.10;;;5.50;91.00;;;;;;5065687;28;20353;-82
2021/01/08 11:03:12;;;;;;;3.03;1.37;;;5.40;91.10;;;;;;5063115;28;20020;-81
2021/01/08 11:05:41;;;;;;;2.97;1.23;;;5.40;91.10;;;;;;5075451;28;20476;-82
2021/01/08 11:08:07;;;;;;;3.33;1.43;;;5.50;91.20;;;;;;5076033;28;20017;-82
2021/01/08 11:10:34;;;;;;;2.00;0.90;;;5.50;91.30;;;;;;5073335;28;20017;-82
2021/01/08 11:13:00;;;;;;;2.80;1.10;;;5.60;91.40;;;;;;5074628;28;20062;-82
2021/01/08 11:15:26;;;;;;;4.50;1.03;;;5.60;91.40;;;;;;5050179;28;20024;-82
2021/01/08 11:17:51;;;;;;;2.33;0.90;;;5.80;91.50;;;;;;5072953;28;20119;-82
2021/01/08 11:20:17;;;;;;;2.23;0.97;;;5.80;91.40;;;;;;5056678;28;20460;-82
2021/01/08 11:22:42;;;;;;;2.10;1.00;;;5.90;91.40;;;;;;5073274;28;20028;-82
2021/01/08 11:25:11;;;;;;;1.57;0.77;;;5.90;91.30;;;;;;5073357;28;20028;-82
2021/01/08 11:27:37;;;;;;;3.10;1.13;;;6.00;91.30;;;;;;5073945;28;20020;-82
2021/01/08 11:30:03;;;;;;;3.10;0.93;;;6.20;91.00;;;;;;5073538;28;20090;-82
2021/01/08 11:32:28;;;;;;;2.23;1.00;;;6.10;90.90;;;;;;5076125;28;20480;-82
2021/01/08 11:34:54;;;;;;;2.20;0.87;;;6.10;90.90;;;;;;5073456;28;20106;-82
2021/01/08 11:37:20;;;;;;;2.53;0.83;;;6.10;90.80;;;;;;5043543;28;20059;-75
2021/01/08 11:39:48;;;;;;;4.07;1.27;;;6.10;90.60;;;;;;5056056;28;20020;-74
2021/01/08 11:42:14;;;;;;;3.43;1.20;;;6.00;90.50;;;;;;5073541;28;20035;-75
2021/01/08 11:44:40;;;;;;;2.47;0.90;;;6.00;90.20;;;;;;5073071;28;20033;-75
2021/01/08 11:47:05;;;;;;;2.80;1.00;;;5.90;90.20;;;;;;5056104;28;20036;-74
2021/01/08 11:49:31;;;;;;;2.70;1.17;;;5.90;90.20;;;;;;5073679;28;20107;-75
2021/01/08 11:51:57;;;;;;;3.33;0.83;;;5.90;90.30;;;;;;5073743;28;20025;-74
2021/01/08 11:54:23;;;;;;;2.33;1.10;;;5.80;90.30;;;;;;5074146;28;20480;-74
2021/01/08 11:56:49;;;;;;;2.47;1.07;;;5.80;90.30;;;;;;5073319;28;20032;-74
2021/01/08 11:59:15;;;;;;;2.20;0.90;;;5.80;90.40;;;;;;5072780;28;20021;-74
2021/01/08 12:01:40;;;;;;;1.97;0.90;;;5.90;90.60;;;;;;5072564;28;20059;-74
2021/01/08 12:04:06;;;;;;;2.47;1.03;;;6.00;90.70;;;;;;5072480;28;20028;-74
2021/01/08 12:06:33;;;;;;;2.03;0.80;;;6.10;90.70;;;;;;5055888;28;20025;-74
2021/01/08 12:09:00;;;;;;;2.50;0.90;;;6.10;90.70;;;;;;5076288;28;20426;-74
2021/01/08 12:11:26;;;;;;;1.80;0.77;;;6.20;90.60;;;;;;5072482;28;20488;-74
2021/01/08 12:13:52;;;;;;;2.40;1.00;;;6.40;90.70;;;;;;5072297;28;20033;-74
2021/01/08 12:16:44;;;;;;;2.33;0.80;;;6.30;90.50;;;;;;5072274;28;20115;-75
2021/01/08 12:19:09;;;;;;;1.73;0.80;;;6.40;90.30;;;;;;5059889;28;20077;-75
2021/01/08 12:21:35;;;;;;;1.57;0.70;;;6.40;89.70;;;;;;5092056;28;20024;-75
2021/01/08 12:24:00;;;;;;;2.60;0.90;;;6.40;89.50;;;;;;5093596;28;20039;-74
2021/01/08 12:26:26;;;;;;;2.57;0.90;;;6.30;89.50;;;;;;5071891;28;20820;-75
2021/01/08 12:28:52;;;;;;;1.83;0.60;;;6.30;89.50;;;;;;5073287;28;20035;-75
2021/01/08 12:31:24;;;;;;;1.30;0.70;;;6.20;89.50;;;;;;5073238;28;20032;-75
2021/01/08 12:33:51;;;;;;;2.07;0.90;;;6.30;89.80;;;;;;5055232;28;20340;-76
2021/01/08 12:36:17;;;;;;;1.10;0.60;;;6.30;89.80;;;;;;5071931;28;20028;-75
2021/01/08 12:38:43;;;;;;;2.03;0.90;;;6.30;89.80;;;;;;5073248;28;20495;-75
2021/01/08 12:41:09;;;;;;;1.70;0.80;;;6.30;89.70;;;;;;5072222;28;20021;-75
2021/01/08 12:43:35;;;;;;;1.43;0.73;;;6.50;89.80;;;;;;5073512;28;20021;-75
2021/01/08 12:46:00;;;;;;;2.23;0.80;;;6.40;89.60;;;;;;5055317;28;20033;-75
2021/01/08 12:48:26;;;;;;;1.63;0.60;;;6.40;89.50;;;;;;5072096;28;20546;-75
2021/01/08 12:50:51;;;;;;;1.80;0.90;;;6.40;89.30;;;;;;5071451;28;20439;-75
2021/01/08 12:53:17;;;;;;;1.07;0.60;;;6.40;89.10;;;;;;5071506;28;20072;-75
2021/01/08 12:55:46;;;;;;;1.87;0.80;;;6.40;89.00;;;;;;5071783;28;20032;-75
2021/01/08 12:58:11;;;;;;;1.70;0.93;;;6.40;88.70;;;;;;5055736;28;20104;-75
2021/01/08 13:00:37;;;;;;;1.70;0.80;;;6.40;88.70;;;;;;5071792;28;20443;-75
2021/01/08 13:03:02;;;;;;;0.90;0.50;;;6.50;88.70;;;;;;5071882;28;20063;-75